Wetterdaten: Woche 01.11.10 - 07.11.10 (KW44)
Datum Zeit Temp. Innen Temp. Aussen UV X Diff Temp. Feuchte Inne Feuchte Auss Sonnenschein Luftdruck Regen ab 0,1 Wind Sonnenschein T Regendauer Windben
01.11.2010 00:00 16,1 C 7,2 C 0,0 UV-I 0,0 C 60 % 94 % 0 % 1005,4 hPa 0,0 l/m 0,0 km/h (0 Bft) 0,00 h 0,00 h 0,0 km/h (0 Bft)
01.11.2010 01:00 16,1 C 7,1 C 0,0 UV-I 0,0 C 60 % 95 % 0 % 1005,3 hPa 0,0 l/m 0,0 km/h (0 Bft) 0,00 h 0,07 h 0,0 km/h (0 Bft)
01.11.2010 02:00 15,9 C 7,3 C 0,0 UV-I 0,0 C 60 % 95 % 0 % 1005,7 hPa 0,0 l/m 0,1 km/h (0 Bft) 0,00 h 0,20 h 0,1 km/h (0 Bft)
01.11.2010 03:00 15,9 C 7,3 C 0,0 UV-I 0,0 C 60 % 95 % 0 % 1006,1 hPa 0,0 l/m 0,0 km/h (0 Bft) 0,00 h 0,00 h 0,0 km/h (0 Bft)
01.11.2010 04:00 15,9 C 7,2 C 0,0 UV-I 0,0 C 60 % 95 % 0 % 1007,0 hPa 0,0 l/m 0,0 km/h (0 Bft) 0,00 h 0,00 h 0,0 km/h (0 Bft)
01.11.2010 05:00 15,9 C 7,3 C 0,0 UV-I 0,0 C 60 % 95 % 0 % 1007,6 hPa 0,0 l/m 0,0 km/h (0 Bft) 0,00 h 0,00 h 0,5 km/h (0 Bft)
01.11.2010 06:00 16,0 C 7,3 C 1,1 UV-I 0,0 C 60 % 95 % 0 % 1007,9 hPa 0,0 l/m 0,2 km/h (0 Bft) 0,00 h 0,00 h 1,0 km/h (0 Bft)
01.11.2010 07:00 15,9 C 6,6 C 1,9 UV-I 0,0 C 60 % 95 % 0 % 1008,8 hPa 0,0 l/m 1,5 km/h (1 Bft) 0,00 h 0,00 h 4,0 km/h (1 Bft)
01.11.2010 08:00 15,8 C 6,7 C 3,3 UV-I 0,0 C 60 % 95 % 0 % 1009,5 hPa 0,0 l/m 1,2 km/h (1 Bft) 0,00 h 0,17 h 2,9 km/h (1 Bft)
01.11.2010 09:00 15,9 C 7,3 C 7,2 UV-I 0,1 C 60 % 96 % 2 % 1010,4 hPa 0,1 l/m 3,0 km/h (1 Bft) 0,00 h 0,27 h 6,6 km/h (2 Bft)
01.11.2010 10:00 16,0 C 7,9 C 10,2 UV-I 0,1 C 60 % 96 % 4 % 1010,9 hPa 0,0 l/m 2,4 km/h (1 Bft) 0,00 h 0,20 h 4,0 km/h (1 Bft)
01.11.2010 11:00 16,0 C 8,1 C 11,3 UV-I 0,3 C 61 % 95 % 9 % 1011,4 hPa 0,0 l/m 2,1 km/h (1 Bft) 0,00 h 0,13 h 4,4 km/h (1 Bft)
01.11.2010 12:00 16,1 C 8,2 C 8,5 UV-I 0,3 C 60 % 95 % 8 % 1011,5 hPa 0,0 l/m 3,5 km/h (1 Bft) 0,00 h 0,10 h 6,1 km/h (2 Bft)
01.11.2010 13:00 16,1 C 8,2 C 6,4 UV-I 0,3 C 61 % 95 % 7 % 1011,4 hPa 0,0 l/m 3,5 km/h (1 Bft) 0,00 h 0,13 h 5,5 km/h (1 Bft)
01.11.2010 14:00 16,1 C 8,3 C 4,4 UV-I 0,1 C 61 % 96 % 4 % 1011,9 hPa 0,0 l/m 2,8 km/h (1 Bft) 0,00 h 0,17 h 4,5 km/h (1 Bft)
01.11.2010 15:00 16,0 C 8,3 C 3,1 UV-I 0,0 C 61 % 96 % 1 % 1012,3 hPa 0,0 l/m 0,6 km/h (0 Bft) 0,00 h 0,10 h 1,7 km/h (1 Bft)
01.11.2010 16:00 15,9 C 8,4 C 0,8 UV-I 0,0 C 61 % 96 % 0 % 1012,8 hPa 0,0 l/m 0,4 km/h (0 Bft) 0,00 h 0,20 h 1,2 km/h (1 Bft)
01.11.2010 17:00 15,9 C 8,5 C 0,0 UV-I 0,0 C 61 % 96 % 0 % 1013,1 hPa 0,0 l/m 0,1 km/h (0 Bft) 0,00 h 0,13 h 0,2 km/h (0 Bft)
01.11.2010 18:00 15,9 C 8,5 C 0,0 UV-I 0,0 C 61 % 96 % 0 % 1013,7 hPa 0,0 l/m 0,1 km/h (0 Bft) 0,00 h 0,30 h 0,7 km/h (0 Bft)
01.11.2010 19:00 15,9 C 8,4 C 0,0 UV-I 0,0 C 61 % 96 % 0 % 1014,1 hPa 0,0 l/m 0,1 km/h (0 Bft) 0,00 h 0,17 h 0,4 km/h (0 Bft)
01.11.2010 20:00 15,9 C 8,3 C 0,0 UV-I 0,0 C 61 % 95 % 0 % 1014,2 hPa 0,0 l/m 0,0 km/h (0 Bft) 0,00 h 0,37 h 0,0 km/h (0 Bft)
01.11.2010 21:00 15,9 C 8,3 C 0,0 UV-I 0,0 C 61 % 95 % 0 % 1014,6 hPa 0,1 l/m 0,3 km/h (0 Bft) 0,00 h 0,33 h 0,5 km/h (0 Bft)
01.11.2010 22:00 15,9 C 8,1 C 0,0 UV-I 0,0 C 61 % 95 % 0 % 1014,9 hPa 0,0 l/m 0,5 km/h (0 Bft) 0,00 h 0,03 h 1,2 km/h (1 Bft)
01.11.2010 23:00 15,9 C 8,0 C 0,0 UV-I 0,0 C 61 % 95 % 0 % 1014,7 hPa 0,0 l/m 0,0 km/h (0 Bft) 0,00 h 0,07 h 0,0 km/h (0 Bft)
02.11.2010 00:00 16,0 C 7,9 C 0,0 UV-I 0,0 C 61 % 95 % 0 % 1014,5 hPa 0,0 l/m 0,2 km/h (0 Bft) 0,00 h 0,10 h 0,4 km/h (0 Bft)
02.11.2010 01:00 16,0 C 7,9 C 0,0 UV-I 0,0 C 60 % 95 % 0 % 1014,8 hPa 0,0 l/m 0,0 km/h (0 Bft) 0,00 h 0,07 h 0,0 km/h (0 Bft)
02.11.2010 02:00 16,0 C 7,9 C 0,0 UV-I 0,0 C 60 % 95 % 0 % 1014,6 hPa 0,0 l/m 0,0 km/h (0 Bft) 0,00 h 0,07 h 0,0 km/h (0 Bft)
02.11.2010 03:00 16,0 C 8,1 C 0,0 UV-I 0,0 C 61 % 95 % 0 % 1014,6 hPa 0,0 l/m 0,1 km/h (0 Bft) 0,00 h 0,07 h 0,6 km/h (0 Bft)
02.11.2010 04:00 16,0 C 8,3 C 0,0 UV-I 0,0 C 61 % 95 % 0 % 1014,5 hPa 0,0 l/m 1,1 km/h (1 Bft) 0,00 h 0,10 h 2,2 km/h (1 Bft)
02.11.2010 05:00 16,0 C 8,5 C 0,0 UV-I 0,0 C 61 % 95 % 0 % 1014,8 hPa 0,0 l/m 0,4 km/h (0 Bft) 0,00 h 0,03 h 1,7 km/h (1 Bft)
02.11.2010 06:00 16,0 C 8,9 C 2,9 UV-I 0,0 C 61 % 95 % 0 % 1014,6 hPa 0,0 l/m 0,9 km/h (0 Bft) 0,00 h 0,13 h 3,1 km/h (1 Bft)
02.11.2010 07:00 16,0 C 9,3 C 4,7 UV-I 0,0 C 61 % 94 % 0 % 1014,7 hPa 0,0 l/m 3,1 km/h (1 Bft) 0,00 h 0,07 h 6,1 km/h (2 Bft)
02.11.2010 08:00 16,0 C 9,6 C 5,1 UV-I 0,0 C 61 % 94 % 1 % 1014,8 hPa 0,0 l/m 2,1 km/h (1 Bft) 0,00 h 0,10 h 3,9 km/h (1 Bft)
02.11.2010 09:00 15,9 C 10,2 C 7,0 UV-I 2,6 C 61 % 92 % 56 % 1014,9 hPa 0,0 l/m 4,1 km/h (1 Bft) 0,43 h 0,10 h 8,1 km/h (2 Bft)
02.11.2010 10:00 16,2 C 12,0 C 10,1 UV-I 4,5 C 61 % 84 % 98 % 1014,6 hPa 0,0 l/m 6,8 km/h (2 Bft) 0,93 h 0,00 h 10,5 km/h (2 Bft)
02.11.2010 11:00 16,5 C 12,6 C 2,1 UV-I 1,2 C 59 % 78 % 34 % 1014,1 hPa 0,0 l/m 5,6 km/h (1 Bft) 0,00 h 0,00 h 7,6 km/h (2 Bft)
02.11.2010 12:00 16,7 C 13,0 C 1,3 UV-I 1,1 C 58 % 76 % 31 % 1014,0 hPa 0,0 l/m 4,7 km/h (1 Bft) 0,00 h 0,00 h 10,1 km/h (2 Bft)
02.11.2010 13:00 16,8 C 13,1 C 0,3 UV-I 0,4 C 57 % 74 % 11 % 1013,5 hPa 0,0 l/m 6,9 km/h (2 Bft) 0,00 h 0,00 h 10,6 km/h (2 Bft)
02.11.2010 14:00 16,8 C 12,7 C 0,1 UV-I 0,1 C 58 % 79 % 3 % 1013,1 hPa 0,0 l/m 8,1 km/h (2 Bft) 0,00 h 0,27 h 12,4 km/h (3 Bft)
02.11.2010 15:00 16,6 C 11,8 C 0,1 UV-I 0,0 C 61 % 88 % 0 % 1013,4 hPa 0,0 l/m 6,2 km/h (2 Bft) 0,00 h 0,17 h 9,3 km/h (2 Bft)
02.11.2010 16:00 16,5 C 11,7 C 0,0 UV-I 0,0 C 62 % 89 % 0 % 1013,4 hPa 0,0 l/m 6,8 km/h (2 Bft) 0,00 h 0,07 h 10,2 km/h (2 Bft)
02.11.2010 17:00 16,4 C 11,7 C 0,0 UV-I 0,0 C 62 % 88 % 0 % 1013,5 hPa 0,0 l/m 6,0 km/h (2 Bft) 0,00 h 0,07 h 9,3 km/h (2 Bft)
02.11.2010 18:00 16,4 C 12,0 C 0,0 UV-I 0,0 C 63 % 87 % 0 % 1013,5 hPa 0,0 l/m 6,9 km/h (2 Bft) 0,00 h 0,10 h 9,8 km/h (2 Bft)
02.11.2010 19:00 16,4 C 12,0 C 0,0 UV-I 0,0 C 63 % 87 % 0 % 1013,8 hPa 0,0 l/m 6,2 km/h (2 Bft) 0,00 h 0,03 h 9,8 km/h (2 Bft)
02.11.2010 20:00 16,3 C 11,9 C 0,0 UV-I 0,0 C 63 % 87 % 0 % 1013,8 hPa 0,0 l/m 6,1 km/h (2 Bft) 0,00 h 0,00 h 9,7 km/h (2 Bft)
02.11.2010 21:00 16,2 C 11,8 C 0,0 UV-I 0,0 C 63 % 86 % 0 % 1013,4 hPa 0,0 l/m 6,1 km/h (2 Bft) 0,00 h 0,07 h 9,3 km/h (2 Bft)
02.11.2010 22:00 16,3 C 11,9 C 0,0 UV-I 0,0 C 63 % 86 % 0 % 1013,3 hPa 0,0 l/m 6,8 km/h (2 Bft) 0,00 h 0,10 h 10,5 km/h (2 Bft)
02.11.2010 23:00 16,3 C 12,0 C 0,0 UV-I 0,0 C 63 % 86 % 0 % 1012,6 hPa 0,0 l/m 6,9 km/h (2 Bft) 0,00 h 0,13 h 12,4 km/h (3 Bft)
03.11.2010 00:00 16,2 C 12,1 C 0,0 UV-I 0,0 C 63 % 85 % 0 % 1012,2 hPa 0,0 l/m 7,5 km/h (2 Bft) 0,00 h 0,10 h 11,2 km/h (2 Bft)
03.11.2010 01:00 16,3 C 12,1 C 0,0 UV-I 0,0 C 62 % 84 % 0 % 1012,0 hPa 0,0 l/m 7,6 km/h (2 Bft) 0,00 h 0,03 h 12,0 km/h (2 Bft)
03.11.2010 02:00 16,3 C 12,2 C 0,0 UV-I 0,0 C 63 % 85 % 0 % 1011,9 hPa 0,0 l/m 8,6 km/h (2 Bft) 0,00 h 0,00 h 13,5 km/h (3 Bft)
03.11.2010 03:00 16,3 C 12,4 C 0,0 UV-I 0,0 C 63 % 84 % 0 % 1011,6 hPa 0,0 l/m 8,9 km/h (2 Bft) 0,00 h 0,07 h 14,1 km/h (3 Bft)
03.11.2010 04:00 16,4 C 12,8 C 0,0 UV-I 0,0 C 63 % 82 % 0 % 1011,5 hPa 0,0 l/m 8,8 km/h (2 Bft) 0,00 h 0,03 h 13,7 km/h (3 Bft)
03.11.2010 05:00 16,4 C 12,9 C 0,0 UV-I 0,0 C 63 % 82 % 0 % 1011,0 hPa 0,0 l/m 9,7 km/h (2 Bft) 0,00 h 0,03 h 12,9 km/h (3 Bft)
03.11.2010 06:00 16,5 C 13,2 C 1,8 UV-I 0,0 C 62 % 80 % 0 % 1010,8 hPa 0,0 l/m 11,0 km/h (2 Bft) 0,00 h 0,03 h 15,9 km/h (3 Bft)
03.11.2010 07:00 16,5 C 13,4 C 4,4 UV-I 0,0 C 62 % 80 % 0 % 1011,1 hPa 0,0 l/m 10,2 km/h (2 Bft) 0,00 h 0,03 h 14,0 km/h (3 Bft)
03.11.2010 08:00 16,3 C 13,3 C 4,9 UV-I 0,0 C 64 % 82 % 0 % 1011,6 hPa 0,0 l/m 10,5 km/h (2 Bft) 0,00 h 0,00 h 15,7 km/h (3 Bft)
03.11.2010 09:00 16,2 C 13,2 C 6,0 UV-I 0,0 C 65 % 84 % 0 % 1011,8 hPa 0,0 l/m 10,8 km/h (2 Bft) 0,00 h 0,00 h 15,5 km/h (3 Bft)
03.11.2010 10:00 16,2 C 13,5 C 8,3 UV-I 0,1 C 66 % 84 % 3 % 1012,2 hPa 0,0 l/m 10,0 km/h (2 Bft) 0,00 h 0,00 h 11,1 km/h (2 Bft)
03.11.2010 11:00 16,3 C 13,9 C 8,1 UV-I 0,1 C 67 % 84 % 2 % 1012,7 hPa 0,0 l/m 9,9 km/h (2 Bft) 0,00 h 0,00 h 12,5 km/h (3 Bft)
03.11.2010 12:00 16,4 C 14,0 C 7,2 UV-I 0,2 C 67 % 85 % 5 % 1013,2 hPa 0,0 l/m 8,7 km/h (2 Bft) 0,00 h 0,00 h 9,7 km/h (2 Bft)
03.11.2010 13:00 16,7 C 14,3 C 5,4 UV-I 0,5 C 68 % 85 % 15 % 1013,5 hPa 0,0 l/m 9,1 km/h (2 Bft) 0,00 h 0,00 h 11,8 km/h (2 Bft)
03.11.2010 14:00 16,8 C 14,5 C 0,5 UV-I 0,3 C 68 % 84 % 10 % 1013,8 hPa 0,0 l/m 7,1 km/h (2 Bft) 0,00 h 0,03 h 9,4 km/h (2 Bft)
03.11.2010 15:00 17,2 C 14,9 C 0,0 UV-I 0,4 C 67 % 82 % 12 % 1014,6 hPa 0,0 l/m 7,1 km/h (2 Bft) 0,00 h 0,00 h 11,7 km/h (2 Bft)
03.11.2010 16:00 17,3 C 14,5 C 0,0 UV-I 0,0 C 66 % 83 % 0 % 1015,1 hPa 0,0 l/m 6,4 km/h (2 Bft) 0,00 h 0,03 h 9,3 km/h (2 Bft)
03.11.2010 17:00 17,0 C 14,4 C 0,0 UV-I 0,0 C 67 % 84 % 0 % 1015,4 hPa 0,0 l/m 5,2 km/h (1 Bft) 0,00 h 0,13 h 7,1 km/h (2 Bft)
03.11.2010 18:00 16,8 C 14,3 C 0,0 UV-I 0,0 C 68 % 85 % 0 % 1015,9 hPa 0,0 l/m 3,4 km/h (1 Bft) 0,00 h 0,00 h 5,2 km/h (1 Bft)
03.11.2010 19:00 16,8 C 14,1 C 0,0 UV-I 0,0 C 68 % 86 % 0 % 1016,3 hPa 0,0 l/m 4,6 km/h (1 Bft) 0,00 h 0,00 h 7,7 km/h (2 Bft)
03.11.2010 20:00 16,7 C 14,3 C 0,0 UV-I 0,0 C 68 % 84 % 0 % 1016,2 hPa 0,0 l/m 7,1 km/h (2 Bft) 0,00 h 0,13 h 10,6 km/h (2 Bft)
03.11.2010 21:00 16,7 C 14,6 C 0,0 UV-I 0,0 C 68 % 83 % 0 % 1016,2 hPa 0,0 l/m 8,4 km/h (2 Bft) 0,00 h 0,07 h 12,7 km/h (3 Bft)
03.11.2010 22:00 16,7 C 14,8 C 0,0 UV-I 0,0 C 68 % 83 % 0 % 1016,3 hPa 0,0 l/m 9,1 km/h (2 Bft) 0,00 h 0,13 h 12,6 km/h (3 Bft)
03.11.2010 23:00 16,9 C 15,2 C 0,0 UV-I 0,0 C 69 % 84 % 0 % 1016,0 hPa 0,0 l/m 10,3 km/h (2 Bft) 0,00 h 0,10 h 14,9 km/h (3 Bft)
04.11.2010 00:00 17,1 C 15,4 C 0,0 UV-I 0,0 C 69 % 84 % 0 % 1016,2 hPa 0,0 l/m 11,4 km/h (2 Bft) 0,00 h 0,23 h 15,7 km/h (3 Bft)
04.11.2010 01:00 17,2 C 15,2 C 0,0 UV-I 0,0 C 70 % 88 % 0 % 1016,5 hPa 0,0 l/m 9,7 km/h (2 Bft) 0,00 h 0,60 h 12,8 km/h (3 Bft)
04.11.2010 02:00 17,2 C 14,8 C 0,0 UV-I 0,0 C 71 % 92 % 0 % 1016,8 hPa 0,1 l/m 8,8 km/h (2 Bft) 0,00 h 0,50 h 11,4 km/h (2 Bft)
04.11.2010 03:00 17,4 C 14,8 C 0,0 UV-I 0,0 C 72 % 92 % 0 % 1016,6 hPa 0,1 l/m 8,8 km/h (2 Bft) 0,00 h 0,50 h 13,1 km/h (3 Bft)
04.11.2010 04:00 17,5 C 14,9 C 0,0 UV-I 0,0 C 72 % 92 % 0 % 1017,0 hPa 0,0 l/m 8,9 km/h (2 Bft) 0,00 h 0,37 h 12,6 km/h (3 Bft)
04.11.2010 05:00 17,6 C 14,9 C 0,0 UV-I 0,0 C 72 % 91 % 0 % 1017,5 hPa 0,0 l/m 8,6 km/h (2 Bft) 0,00 h 0,47 h 11,5 km/h (2 Bft)
04.11.2010 06:00 17,6 C 14,9 C 1,8 UV-I 0,0 C 72 % 91 % 0 % 1017,5 hPa 0,1 l/m 9,8 km/h (2 Bft) 0,00 h 0,43 h 12,9 km/h (3 Bft)
04.11.2010 07:00 17,6 C 15,0 C 3,0 UV-I 0,0 C 72 % 90 % 0 % 1017,8 hPa 0,0 l/m 10,5 km/h (2 Bft) 0,00 h 0,13 h 13,7 km/h (3 Bft)
04.11.2010 08:00 17,6 C 15,5 C 3,4 UV-I 0,0 C 71 % 87 % 0 % 1018,6 hPa 0,0 l/m 14,2 km/h (3 Bft) 0,00 h 0,17 h 18,5 km/h (3 Bft)
04.11.2010 09:00 17,8 C 15,8 C 5,8 UV-I 0,2 C 71 % 85 % 5 % 1019,2 hPa 0,0 l/m 12,9 km/h (3 Bft) 0,00 h 0,03 h 16,5 km/h (3 Bft)
04.11.2010 10:00 18,0 C 16,1 C 6,9 UV-I 0,2 C 70 % 84 % 7 % 1019,8 hPa 0,0 l/m 14,0 km/h (3 Bft) 0,00 h 0,53 h 20,2 km/h (4 Bft)
04.11.2010 11:00 18,1 C 15,8 C 2,8 UV-I 0,1 C 70 % 87 % 3 % 1020,1 hPa 0,1 l/m 13,9 km/h (3 Bft) 0,00 h 0,23 h 18,3 km/h (3 Bft)
04.11.2010 12:00 18,2 C 16,7 C 1,4 UV-I 0,5 C 70 % 81 % 13 % 1020,5 hPa 0,0 l/m 13,8 km/h (3 Bft) 0,00 h 0,07 h 16,5 km/h (3 Bft)
04.11.2010 13:00 18,6 C 17,1 C 0,8 UV-I 0,8 C 68 % 77 % 23 % 1020,9 hPa 0,0 l/m 15,3 km/h (3 Bft) 0,00 h 0,00 h 18,4 km/h (3 Bft)
04.11.2010 14:00 18,8 C 17,0 C 0,3 UV-I 0,4 C 67 % 77 % 11 % 1021,1 hPa 0,0 l/m 13,5 km/h (3 Bft) 0,00 h 0,00 h 16,4 km/h (3 Bft)
04.11.2010 15:00 18,8 C 16,7 C 0,0 UV-I 0,1 C 66 % 77 % 2 % 1021,3 hPa 0,0 l/m 14,4 km/h (3 Bft) 0,00 h 0,00 h 18,3 km/h (3 Bft)
04.11.2010 16:00 18,7 C 16,5 C 0,0 UV-I 0,0 C 65 % 77 % 0 % 1021,4 hPa 0,0 l/m 15,3 km/h (3 Bft) 0,00 h 0,03 h 22,5 km/h (4 Bft)
04.11.2010 17:00 18,4 C 16,2 C 0,0 UV-I 0,0 C 65 % 77 % 0 % 1021,3 hPa 0,0 l/m 13,4 km/h (3 Bft) 0,00 h 0,07 h 16,4 km/h (3 Bft)
04.11.2010 18:00 18,3 C 16,0 C 0,0 UV-I 0,0 C 66 % 78 % 0 % 1021,5 hPa 0,0 l/m 13,2 km/h (3 Bft) 0,00 h 0,07 h 16,7 km/h (3 Bft)
04.11.2010 19:00 18,2 C 15,8 C 0,0 UV-I 0,0 C 65 % 76 % 0 % 1022,1 hPa 0,0 l/m 13,9 km/h (3 Bft) 0,00 h 0,00 h 17,2 km/h (3 Bft)
04.11.2010 20:00 18,2 C 15,7 C 0,0 UV-I 0,0 C 64 % 76 % 0 % 1022,1 hPa 0,0 l/m 13,9 km/h (3 Bft) 0,00 h 0,13 h 19,8 km/h (3 Bft)
04.11.2010 21:00 18,2 C 15,7 C 0,0 UV-I 0,0 C 64 % 76 % 0 % 1022,0 hPa 0,0 l/m 14,3 km/h (3 Bft) 0,00 h 0,07 h 18,0 km/h (3 Bft)
04.11.2010 22:00 18,1 C 15,5 C 0,0 UV-I 0,0 C 64 % 77 % 0 % 1022,3 hPa 0,0 l/m 13,5 km/h (3 Bft) 0,00 h 0,00 h 20,2 km/h (4 Bft)
04.11.2010 23:00 18,1 C 15,6 C 0,0 UV-I 0,0 C 64 % 76 % 0 % 1022,4 hPa 0,0 l/m 13,0 km/h (3 Bft) 0,00 h 0,03 h 16,5 km/h (3 Bft)
05.11.2010 00:00 18,1 C 15,4 C 0,0 UV-I 0,0 C 63 % 76 % 0 % 1022,1 hPa 0,0 l/m 13,4 km/h (3 Bft) 0,00 h 0,03 h 17,6 km/h (3 Bft)
05.11.2010 01:00 18,1 C 15,4 C 0,0 UV-I 0,0 C 63 % 76 % 0 % 1021,7 hPa 0,0 l/m 13,0 km/h (3 Bft) 0,00 h 0,00 h 14,3 km/h (3 Bft)
05.11.2010 02:00 18,0 C 15,2 C 0,0 UV-I 0,0 C 63 % 77 % 0 % 1021,6 hPa 0,0 l/m 11,8 km/h (2 Bft) 0,00 h 0,07 h 14,0 km/h (3 Bft)
05.11.2010 03:00 18,0 C 15,0 C 0,0 UV-I 0,0 C 63 % 77 % 0 % 1021,5 hPa 0,0 l/m 11,2 km/h (2 Bft) 0,00 h 0,07 h 14,9 km/h (3 Bft)
05.11.2010 04:00 18,1 C 14,7 C 0,0 UV-I 0,0 C 62 % 77 % 0 % 1021,3 hPa 0,0 l/m 12,7 km/h (3 Bft) 0,00 h 0,03 h 17,4 km/h (3 Bft)
05.11.2010 05:00 18,0 C 14,7 C 0,0 UV-I 0,0 C 62 % 77 % 0 % 1021,3 hPa 0,0 l/m 13,8 km/h (3 Bft) 0,00 h 0,03 h 18,3 km/h (3 Bft)
05.11.2010 06:00 18,0 C 14,5 C 1,4 UV-I 0,0 C 61 % 78 % 0 % 1021,2 hPa 0,0 l/m 15,1 km/h (3 Bft) 0,00 h 0,43 h 21,9 km/h (4 Bft)
05.11.2010 07:00 17,9 C 13,4 C 1,2 UV-I 0,0 C 63 % 84 % 0 % 1021,4 hPa 0,1 l/m 13,1 km/h (3 Bft) 0,00 h 0,73 h 18,2 km/h (3 Bft)
05.11.2010 08:00 17,9 C 13,6 C 1,9 UV-I 0,0 C 63 % 83 % 0 % 1022,1 hPa 0,0 l/m 12,1 km/h (2 Bft) 0,00 h 0,20 h 15,5 km/h (3 Bft)
05.11.2010 09:00 17,9 C 13,7 C 1,9 UV-I 0,0 C 63 % 83 % 1 % 1022,8 hPa 0,0 l/m 12,0 km/h (2 Bft) 0,00 h 0,20 h 15,5 km/h (3 Bft)
05.11.2010 10:00 18,0 C 13,6 C 3,7 UV-I 0,0 C 64 % 86 % 0 % 1022,7 hPa 0,0 l/m 11,5 km/h (2 Bft) 0,00 h 0,47 h 14,2 km/h (3 Bft)
05.11.2010 11:00 18,0 C 13,5 C 4,1 UV-I 0,1 C 64 % 87 % 2 % 1023,1 hPa 0,0 l/m 12,3 km/h (3 Bft) 0,00 h 0,27 h 18,0 km/h (3 Bft)
05.11.2010 12:00 18,1 C 13,6 C 4,0 UV-I 0,2 C 65 % 88 % 6 % 1023,2 hPa 0,0 l/m 9,8 km/h (2 Bft) 0,00 h 0,27 h 12,1 km/h (2 Bft)
05.11.2010 13:00 18,2 C 13,9 C 2,2 UV-I 0,2 C 64 % 86 % 4 % 1022,8 hPa 0,0 l/m 11,8 km/h (2 Bft) 0,00 h 0,13 h 17,0 km/h (3 Bft)
05.11.2010 14:00 18,2 C 13,8 C 1,2 UV-I 0,1 C 65 % 86 % 4 % 1022,4 hPa 0,0 l/m 11,9 km/h (2 Bft) 0,00 h 0,20 h 16,5 km/h (3 Bft)
05.11.2010 15:00 18,1 C 13,6 C 0,3 UV-I 0,0 C 65 % 89 % 0 % 1022,1 hPa 0,0 l/m 10,4 km/h (2 Bft) 0,00 h 0,27 h 12,6 km/h (3 Bft)
05.11.2010 16:00 17,9 C 13,2 C 0,1 UV-I 0,0 C 66 % 91 % 0 % 1021,8 hPa 0,3 l/m 6,2 km/h (2 Bft) 0,00 h 0,97 h 9,3 km/h (2 Bft)
05.11.2010 17:00 17,8 C 13,1 C 0,0 UV-I 0,0 C 68 % 93 % 0 % 1021,1 hPa 0,3 l/m 6,7 km/h (2 Bft) 0,00 h 0,87 h 9,1 km/h (2 Bft)
05.11.2010 18:00 17,7 C 13,2 C 0,0 UV-I 0,0 C 68 % 93 % 0 % 1020,6 hPa 0,2 l/m 6,0 km/h (2 Bft) 0,00 h 0,47 h 9,4 km/h (2 Bft)
05.11.2010 19:00 17,8 C 13,6 C 0,0 UV-I 0,0 C 69 % 94 % 0 % 1020,0 hPa 0,1 l/m 8,5 km/h (2 Bft) 0,00 h 0,47 h 10,9 km/h (2 Bft)
05.11.2010 20:00 17,6 C 14,1 C 0,0 UV-I 0,0 C 70 % 92 % 0 % 1019,0 hPa 0,0 l/m 10,0 km/h (2 Bft) 0,00 h 0,40 h 13,9 km/h (3 Bft)
05.11.2010 21:00 17,5 C 14,3 C 0,0 UV-I 0,0 C 71 % 92 % 0 % 1018,8 hPa 0,0 l/m 10,8 km/h (2 Bft) 0,00 h 0,27 h 13,5 km/h (3 Bft)
05.11.2010 22:00 17,3 C 14,2 C 0,0 UV-I 0,0 C 72 % 91 % 0 % 1018,0 hPa 0,0 l/m 10,5 km/h (2 Bft) 0,00 h 0,27 h 15,3 km/h (3 Bft)
05.11.2010 23:00 17,2 C 14,6 C 0,0 UV-I 0,0 C 71 % 89 % 0 % 1017,0 hPa 0,0 l/m 12,4 km/h (3 Bft) 0,00 h 0,30 h 19,6 km/h (3 Bft)
06.11.2010 00:00 17,2 C 14,4 C 0,0 UV-I 0,0 C 72 % 89 % 0 % 1016,4 hPa 0,0 l/m 12,5 km/h (3 Bft) 0,00 h 0,27 h 15,5 km/h (3 Bft)
06.11.2010 01:00 17,1 C 14,4 C 0,0 UV-I 0,0 C 72 % 88 % 0 % 1016,1 hPa 0,0 l/m 10,1 km/h (2 Bft) 0,00 h 0,33 h 12,4 km/h (3 Bft)
06.11.2010 02:00 17,1 C 14,4 C 0,0 UV-I 0,0 C 71 % 87 % 0 % 1015,5 hPa 0,0 l/m 10,4 km/h (2 Bft) 0,00 h 0,60 h 14,3 km/h (3 Bft)
06.11.2010 03:00 17,0 C 14,6 C 0,0 UV-I 0,0 C 70 % 85 % 0 % 1013,9 hPa 0,0 l/m 12,4 km/h (3 Bft) 0,00 h 0,27 h 18,2 km/h (3 Bft)
06.11.2010 04:00 16,9 C 14,0 C 0,0 UV-I 0,0 C 70 % 88 % 0 % 1012,9 hPa 0,1 l/m 15,2 km/h (3 Bft) 0,00 h 0,80 h 18,7 km/h (3 Bft)
06.11.2010 05:00 16,8 C 12,1 C 0,0 UV-I 0,0 C 70 % 89 % 0 % 1013,2 hPa 2,9 l/m 6,9 km/h (2 Bft) 0,00 h 1,00 h 8,2 km/h (2 Bft)
06.11.2010 06:00 17,0 C 10,9 C 0,9 UV-I 0,0 C 69 % 92 % 0 % 1013,8 hPa 1,5 l/m 0,7 km/h (0 Bft) 0,00 h 1,00 h 1,4 km/h (1 Bft)
06.11.2010 07:00 16,9 C 10,5 C 2,1 UV-I 0,0 C 68 % 93 % 0 % 1014,0 hPa 1,3 l/m 1,3 km/h (1 Bft) 0,00 h 1,00 h 2,2 km/h (1 Bft)
06.11.2010 08:00 17,4 C 10,2 C 2,6 UV-I 0,0 C 67 % 93 % 0 % 1014,7 hPa 1,3 l/m 2,0 km/h (1 Bft) 0,00 h 1,00 h 4,8 km/h (1 Bft)
06.11.2010 09:00 20,5 C 10,1 C 3,4 UV-I 0,0 C 60 % 93 % 0 % 1014,9 hPa 0,5 l/m 2,4 km/h (1 Bft) 0,00 h 0,93 h 5,3 km/h (1 Bft)
06.11.2010 10:00 18,3 C 9,9 C 4,3 UV-I 0,0 C 63 % 93 % 0 % 1014,7 hPa 0,0 l/m 1,8 km/h (1 Bft) 0,00 h 0,40 h 3,8 km/h (1 Bft)
06.11.2010 11:00 17,4 C 10,0 C 5,8 UV-I 0,0 C 64 % 93 % 1 % 1014,7 hPa 0,0 l/m 2,3 km/h (1 Bft) 0,00 h 0,00 h 4,0 km/h (1 Bft)
06.11.2010 12:00 17,3 C 10,6 C 5,0 UV-I 0,6 C 64 % 92 % 16 % 1014,8 hPa 0,0 l/m 3,6 km/h (1 Bft) 0,00 h 0,00 h 6,8 km/h (2 Bft)
06.11.2010 13:00 17,8 C 11,7 C 1,5 UV-I 2,0 C 64 % 88 % 56 % 1014,6 hPa 0,0 l/m 5,9 km/h (2 Bft) 0,27 h 0,00 h 10,8 km/h (2 Bft)
06.11.2010 14:00 18,8 C 12,1 C 0,8 UV-I 1,5 C 60 % 84 % 41 % 1014,6 hPa 0,0 l/m 5,7 km/h (1 Bft) 0,00 h 0,00 h 8,0 km/h (2 Bft)
06.11.2010 15:00 18,9 C 11,8 C 0,0 UV-I 0,3 C 59 % 83 % 7 % 1014,0 hPa 0,0 l/m 4,7 km/h (1 Bft) 0,00 h 0,00 h 6,7 km/h (2 Bft)
06.11.2010 16:00 18,1 C 11,2 C 0,0 UV-I 0,0 C 60 % 84 % 0 % 1013,2 hPa 0,0 l/m 1,7 km/h (1 Bft) 0,00 h 0,00 h 3,5 km/h (1 Bft)
06.11.2010 17:00 17,4 C 10,0 C 0,0 UV-I 0,0 C 60 % 86 % 0 % 1012,7 hPa 0,0 l/m 0,4 km/h (0 Bft) 0,00 h 0,00 h 0,6 km/h (0 Bft)
06.11.2010 18:00 17,0 C 9,3 C 0,0 UV-I 0,0 C 60 % 88 % 0 % 1012,4 hPa 0,0 l/m 0,4 km/h (0 Bft) 0,00 h 0,00 h 0,6 km/h (0 Bft)
06.11.2010 19:00 16,7 C 8,1 C 0,0 UV-I 0,0 C 60 % 89 % 0 % 1012,0 hPa 0,0 l/m 0,0 km/h (0 Bft) 0,00 h 0,00 h 0,0 km/h (0 Bft)
06.11.2010 20:00 16,5 C 7,5 C 0,0 UV-I 0,0 C 60 % 91 % 0 % 1011,4 hPa 0,0 l/m 0,0 km/h (0 Bft) 0,00 h 0,00 h 0,0 km/h (0 Bft)
06.11.2010 21:00 16,4 C 7,3 C 0,0 UV-I 0,0 C 60 % 92 % 0 % 1011,0 hPa 0,0 l/m 0,0 km/h (0 Bft) 0,00 h 0,00 h 0,0 km/h (0 Bft)
06.11.2010 22:00 16,3 C 7,3 C 0,0 UV-I 0,0 C 60 % 93 % 0 % 1010,2 hPa 0,0 l/m 0,3 km/h (0 Bft) 0,00 h 0,00 h 0,6 km/h (0 Bft)
06.11.2010 23:00 16,3 C 7,2 C 0,1 UV-I 0,0 C 60 % 93 % 0 % 1009,7 hPa 0,0 l/m 0,0 km/h (0 Bft) 0,00 h 0,10 h 0,0 km/h (0 Bft)
07.11.2010 00:00 16,2 C 7,0 C 0,0 UV-I 0,0 C 60 % 94 % 0 % 1008,6 hPa 0,0 l/m 0,0 km/h (0 Bft) 0,00 h 0,00 h 0,0 km/h (0 Bft)
07.11.2010 01:00 16,1 C 6,6 C 0,1 UV-I 0,0 C 60 % 94 % 0 % 1008,0 hPa 0,0 l/m 0,0 km/h (0 Bft) 0,00 h 0,00 h 0,0 km/h (0 Bft)
07.11.2010 02:00 16,0 C 6,2 C 0,1 UV-I 0,0 C 60 % 94 % 0 % 1007,1 hPa 0,0 l/m 0,0 km/h (0 Bft) 0,00 h 0,00 h 0,0 km/h (0 Bft)
07.11.2010 03:00 16,0 C 6,0 C 0,0 UV-I 0,0 C 60 % 94 % 0 % 1006,2 hPa 0,0 l/m 0,0 km/h (0 Bft) 0,00 h 0,50 h 0,0 km/h (0 Bft)
07.11.2010 04:00 15,9 C 6,0 C 0,1 UV-I 0,0 C 60 % 94 % 0 % 1005,4 hPa 0,0 l/m 0,0 km/h (0 Bft) 0,00 h 0,03 h 0,0 km/h (0 Bft)
07.11.2010 05:00 15,9 C 6,2 C 0,0 UV-I 0,0 C 60 % 95 % 0 % 1005,1 hPa 0,0 l/m 0,1 km/h (0 Bft) 0,00 h 0,00 h 0,5 km/h (0 Bft)
07.11.2010 06:00 15,9 C 6,4 C 0,0 UV-I 0,0 C 60 % 95 % 0 % 1004,4 hPa 0,0 l/m 0,1 km/h (0 Bft) 0,00 h 0,00 h 0,8 km/h (0 Bft)
07.11.2010 07:00 15,9 C 6,7 C 0,6 UV-I 0,0 C 60 % 95 % 0 % 1004,0 hPa 0,0 l/m 0,0 km/h (0 Bft) 0,00 h 0,00 h 0,0 km/h (0 Bft)
07.11.2010 08:00 15,9 C 7,2 C 1,4 UV-I 0,0 C 61 % 95 % 0 % 1004,1 hPa 0,1 l/m 0,5 km/h (0 Bft) 0,00 h 0,10 h 1,3 km/h (1 Bft)
07.11.2010 09:00 16,0 C 7,6 C 2,8 UV-I 0,3 C 61 % 95 % 9 % 1004,2 hPa 0,0 l/m 0,8 km/h (0 Bft) 0,00 h 0,00 h 2,2 km/h (1 Bft)
07.11.2010 10:00 16,2 C 7,9 C 3,5 UV-I 0,4 C 61 % 95 % 12 % 1004,2 hPa 0,0 l/m 2,8 km/h (1 Bft) 0,00 h 0,00 h 5,1 km/h (1 Bft)
07.11.2010 11:00 16,3 C 8,2 C 3,7 UV-I 0,2 C 60 % 93 % 7 % 1003,9 hPa 0,0 l/m 3,6 km/h (1 Bft) 0,00 h 0,00 h 6,1 km/h (2 Bft)
07.11.2010 12:00 16,4 C 8,5 C 3,6 UV-I 0,6 C 60 % 89 % 16 % 1003,7 hPa 0,0 l/m 4,9 km/h (1 Bft) 0,00 h 0,00 h 7,4 km/h (2 Bft)
07.11.2010 13:00 16,5 C 8,7 C 0,9 UV-I 0,3 C 58 % 86 % 9 % 1003,1 hPa 0,0 l/m 4,0 km/h (1 Bft) 0,00 h 0,00 h 5,8 km/h (2 Bft)
07.11.2010 14:00 16,6 C 8,9 C 0,8 UV-I 0,6 C 57 % 82 % 17 % 1002,5 hPa 0,0 l/m 4,6 km/h (1 Bft) 0,00 h 0,00 h 6,5 km/h (2 Bft)
07.11.2010 15:00 16,8 C 8,5 C 0,5 UV-I 0,0 C 56 % 81 % 1 % 1002,1 hPa 0,0 l/m 2,7 km/h (1 Bft) 0,00 h 0,00 h 3,7 km/h (1 Bft)
07.11.2010 16:00 16,6 C 7,9 C 0,1 UV-I 0,0 C 56 % 83 % 0 % 1001,8 hPa 0,0 l/m 2,5 km/h (1 Bft) 0,00 h 0,00 h 3,5 km/h (1 Bft)
07.11.2010 17:00 16,4 C 7,5 C 0,0 UV-I 0,0 C 57 % 85 % 0 % 1001,4 hPa 0,0 l/m 2,8 km/h (1 Bft) 0,00 h 0,00 h 3,7 km/h (1 Bft)
07.11.2010 18:00 16,3 C 7,3 C 0,0 UV-I 0,0 C 57 % 85 % 0 % 1001,3 hPa 0,0 l/m 0,3 km/h (0 Bft) 0,00 h 0,00 h 0,0 km/h (0 Bft)
07.11.2010 19:00 16,2 C 6,7 C 0,0 UV-I 0,0 C 57 % 86 % 0 % 1000,8 hPa 0,0 l/m 0,5 km/h (0 Bft) 0,00 h 0,00 h 0,7 km/h (0 Bft)
07.11.2010 20:00 16,1 C 6,3 C 0,0 UV-I 0,0 C 57 % 87 % 0 % 1000,3 hPa 0,0 l/m 0,5 km/h (0 Bft) 0,00 h 0,00 h 1,6 km/h (1 Bft)
07.11.2010 21:00 15,9 C 5,9 C 0,0 UV-I 0,0 C 57 % 88 % 0 % 999,2 hPa 0,0 l/m 0,5 km/h (0 Bft) 0,00 h 0,00 h 1,9 km/h (1 Bft)
07.11.2010 22:00 16,0 C 5,8 C 0,0 UV-I 0,0 C 57 % 89 % 0 % 998,4 hPa 0,0 l/m 0,1 km/h (0 Bft) 0,00 h 0,00 h 0,6 km/h (0 Bft)
07.11.2010 23:00 16,0 C 5,9 C 0,0 UV-I 0,0 C 56 % 89 % 0 % 997,4 hPa 0,0 l/m 0,4 km/h (0 Bft) 0,00 h 0,00 h 1,9 km/h (1 Bft)
Min-Datum _ 01.11.10 07.11.10 01.11.10 01.11.10 07.11.10 02.11.10 01.11.10 07.11.10 - 01.11.10 - - 01.11.10
_ Min-Zeit 07:18 21:46 00:00 00:00 15:02 13:30 00:00 23:46 - 00:00 - - 00:00
Minimum _ 15,8 C 5,7 C 0,0 UV-I 0,0 C 56 % 73 % 0 % 996,8 hPa - 0,0 km/h (0 Bft) - - 0,0 km/h (0 Bft)
Max-Datum _ 06.11.10 04.11.10 02.11.10 02.11.10 04.11.10 01.11.10 02.11.10 05.11.10 06.11.10 04.11.10 02.11.10 01.11.10 04.11.10
_ Max-Zeit 08:54 13:36 10:44 10:02 02:44 09:16 09:36 09:40 05:18 13:06 09:34 01:50 12:56
Maximum _ 21,2 C 17,3 C 14,9 UV-I 6,1 C 72 % 96 % 100 % 1023,6 hPa 2,9 l/m 18,1 km/h
SW (3 Bft)
0,03 h 0,03 h 48,3 km/h
S (6 Bft)
Durchschnitt _ 16,9 C 11,4 C 1,4 UV-I 0,1 C 63 % 88 % 4 % 1013,7 hPa #9,3 l/m 6,1 km/h (2 Bft) #1:38 h #26:46 h 8,6 km/h (2 Bft)
© 2012 W. Hausmann